航空気象通報

ウインドサーファーのための航空気象通報による風予報です。

3/31-4/1の航空気象通報(国内、海外)

2012年03月31日 22時34分59秒 | TAF

羽田空港
TAF AMD RJTT 311204Z 3112/0112 34018KT 9999 FEW020 BKN050
      TEMPO 3112/3115 34020G30KT
      BECMG 3115/3117 34008KT
      BECMG 0100/0103 22016KT
      BECMG 0106/0109 35016KT
日本時間31日21-24時:340度から18ノットの風
但し、31日21-24時の間:ときどき340度から20ノット、突風30ノット
1日00-02時:風が変化
02-09時:340度から8ノットの風
09-12時:風が変化
12-15時:220度から16ノットの風
15-18時:風が変化
18-21時:350度から16ノットの風

静岡空港
TAF RJNS 310841Z 3109/0112 28018KT 9999 FEW030
      TEMPO 3109/3111 28020G30KT
      BECMG 0100/0103 27020G32KT
日本時間31日18時-1日09時:280度から18ノットの風
但し、31日18-20時の間:ときどき280度から20ノット、突風30ノット
1日09-12時:風が変化
12-21時:270度から20ノット、突風32ノット

福岡空港
TAF RJFF 310845Z 3109/0112 20009KT 9999 FEW035
      BECMG 3112/3114 26014KT
      TEMPO 3113/3118 26015G25KT
      BECMG 3118/3121 32012KT
      BECMG 0109/0112 14005KT
日本時間31日18-21時:200度から9ノットの風
21-23時:風が変化
23時-1日03時:260度から14ノットの風
但し、31日22時-1日03時の間:260度から15ノット、突風25ノット
1日03-06時:風が変化
06-18時:320度から12ノットの風
18-21時:風が変化
21時:140度から5ノットの風

那覇空港
TAF ROAH 310842Z 3109/0112 03017KT 9999 FEW040
日本時間31日18時-1日21時:030度から17ノットの風

マウイのカフルイ空港
TAF PHOG 311120Z 3112/0112 05015G25KT P6SM SCT050
     FM010300 05015KT P6SM SCT050
     FM010800 05008KT P6SM SCT050
      AMD LTD TO WX VIS AND WIND TIL 311600
ハワイ時間31日02-17時:050度から15ノット、突風25ノット
17-22時:050度から15ノットの風
22時-1日02時:050度から8ノットの風

サイパン空港
TAF TAF PGSN 311120Z 3112/0112 05011KT P6SM VCSH SCT015 SCT035 BKN110
     FM312300 07016G22KT P6SM VCSH SCT020 SCT050
     FM010900 05009KT P6SM VCSH SCT018 SCT050
マリアナ時間31日22時-1日09時:050度から11ノットの風
09-19時:070度から16ノット、突風22ノット
19-22時:050度から9ノットの風

コメント
この記事をはてなブックマークに追加

3/30-3/31の航空気象通報(国内、海外)

2012年03月31日 00時06分39秒 | TAF

羽田空港
TAF RJTT 300839Z 3009/3112 21020G30KT 9999 FEW030
      TEMPO 3009/3012 22034G45KT
      TEMPO 3021/3024 20030G40KT
      TEMPO 3103/3109 18040G50KT 4000 SHRA
      BECMG 3109/3112 34014KT
日本時間30日18時-31日18時:210度から20ノット、突風30ノット
但し、30日18-21時の間:ときどき220度から34ノット、突風45ノット
但し、31日06-09時の間:ときどき200度から30ノット、突風40ノット
但し、31日12-18時の間:ときどき180度から40ノット、突風50ノット
18-21時:風が変化
21時:340度から14ノットの風

但し、31日12-18時の間:ときどき

静岡空港
TAF RJNS 300842Z 3009/3112 24012KT 9999 FEW020 BKN030
      BECMG 3100/3103 21022KT
      TEMPO 3100/3103 21022G32KT 3000 TSRA FEW005 BKN008 FEW015CB
      BECMG 3103/3106 27022KT
      TEMPO 3103/3106 27025G35KT 3000 SHRA FEW005 BKN008
      BECMG 3106/3109 27022G32KT
日本時間30日18時-31日09時:240度から12ノットの風
09-12時:風が変化
12時:210度から22ノットの風
但し、09-12時の間:ときどき210度から22ノット、突風32ノット
12-15時:風が変化
15時:270度から22ノットの風
但し、12-15時の間:ときどき270度から25ノット、突風35ノット
15-18時:風が変化
18-21時:270度から22ノット、突風32ノット
18-21時:風が変化
21時:270度から10ノットの風

但し、09-12時の間:ときどき
但し、12-15時の間:ときどき

福岡空港
TAF RJFF 300848Z 3009/3112 16017KT 9999 FEW035 SCT045
      TEMPO 3016/3021 2000 +SHRA BR
      BECMG 3018/3021 32018G28KT
      TEMPO 3021/3024 4000 -SHRA BR FEW005 BKN008 BKN015
      BECMG 3106/3109 26013KT
      TEMPO 3106/3112 26015G25KT
日本時間30日18時-31日03時:160度から17ノットの風
03-06時:風が変化
06-15時:320度から18ノット、突風28ノット
15-18時:風が変化
18-21時:260度から13ノットの風
但し、15-21時の間:260度から15ノット、突風25ノット

但し、31日01-06時の間:ときどき
但し、31日06-09時の間:ときどき

那覇空港
TAF ROAH 300844Z 3009/3112 18012KT 9999 FEW035
      BECMG 3100/3103 35025KT
      TEMPO 3100/3103 35026G36KT 3000 +SHRA FEW008 SCT010 BKN020 FEW025CB
      TEMPO 3103/3109 35026G36KT
日本時間30日18時-31日09時:180度から12ノットの風
09-12時:風が変化
12-21時:350度から25ノットの風
但し、31日09-18時の間:ときどき350度から26ノット、突風36ノット

但し、31日09-12時の間:ときどき

マウイのカフルイ空港
TAF PHOG 301131Z 3012/3112 05010KT P6SM FEW030
     FM301800 05015G25KT P6SM FEW030 SCT060
     FM302000 05025G35KT P6SM FEW030 SCT060
     FM310700 05015G25KT P6SM FEW030
     FM311000 05011KT P6SM FEW030
      AMD LTD TO WX VIS AND WIND TIL 301600
ハワイ時間30日02-08時:050度から10ノットの風
08-10時:050度から15ノット、突風25ノット
10-21時:050度から25ノット、突風35ノット
21時-31日01時:050度から15ノット、突風25ノット
01-02時:050度から11ノットの風

サイパン空港
TAF PGSN 301120Z 3012/3112 07015G25KT P6SM VCSH SCT017 SCT035
     FM301400 06013G20KT P6SM VCSH SCT015 SCT040
     FM302300 07016G26KT P6SM VCSH SCT020 SCT050
     FM310900 07009KT P6SM VCSH SCT018 SCT050
マリアナ時間30日22-24時:070度から15ノット、突風25ノット
31日00-09時:060度から13ノット、突風20ノット
09-18時:070度から16ノット、突風26ノット
18-22時:070度から9ノットの風

コメント
この記事をはてなブックマークに追加

3/29-3/30の航空気象通報(国内、海外)

2012年03月29日 23時30分39秒 | TAF

羽田空港
TAF RJTT 290836Z 2909/3012 21018KT 9999 FEW030
      TEMPO 2909/2915 20020G30KT
      BECMG 3000/3003 21020G30KT
      TEMPO 3003/3009 21030G40KT
日本時間29日18時-30日09時:210度から18ノットの風
但し、29日18-24時の間:ときどき200度から20ノット、突風30ノット
30日09-12時:風が変化
12-21時:210度から20ノット、突風30ノット
但し、12-18時の間:ときどき210度から30ノット、突風40ノット

静岡空港
TAF RJNS 290840Z 2909/3012 27008KT 9999 FEW030
      TEMPO 3003/3009 23018G28KT
日本時間29日18時-30日21時:270度から8ノットの風
但し、30日12-18時の間:ときどき230度から18ノット、突風28ノット

福岡空港
TAF RJFF 290840Z 2909/3012 15009KT 9999 FEW040
      BECMG 3000/3003 16020KT
日本時間29日18時-30日09時:150度から9ノットの風
09-12時:風が変化
12-21時:160度から20ノットの風

那覇空港
TAF ROAH 290839Z 2909/3012 12009KT 9999 FEW040
日本時間29日18時-30日21時:120度から9ノットの風

マウイのカフルイ空港
TAF PHOG 291135Z 2912/3012 05010KT P6SM FEW040
     FM292000 05015G25KT P6SM FEW040
     FM300600 05010KT P6SM FEW040
      AMD LTD TO WX VIS AND WIND TIL 291600
ハワイ時間29日02-10時:050度から10ノットの風
10-20時:050度から15ノット、突風25ノット
20時-30日02時:050度から10ノットの風

サイパン空港
TAF PGSN 291120Z 2912/3012 05013KT P6SM VCSH SCT024
     FM300100 06018G26KT P6SM VCSH SCT020 SCT045
     FM300900 05011KT P6SM VCSH SCT020
マリアナ時間29日22時-30日11時:050度から18ノット、突風26ノット
11-19時:060度から18ノット、突風26ノット
19-22時:050度から11ノットの風

コメント
この記事をはてなブックマークに追加

3/26-3/27の航空気象通報(国内、海外)

2012年03月26日 23時47分07秒 | TAF

羽田空港
TAF AMD RJTT 261230Z 2612/2712 07008KT 9999 FEW030
      BECMG 2613/2615 35008KT
      BECMG 2700/2703 16010KT
日本時間26日18-22時:070度から8ノットの風
22-24時:風が変化
27日00-09時:350度から8ノットの風
09-12時:風が変化
12-21時:160度から10ノットの風

静岡空港
TAF RJNS 260839Z 2609/2712 26010KT 9999 FEW030
      TEMPO 2609/2610 28018G28KT
日本時間26日18時-27日21時:260度から10ノットの風

福岡空港
TAF RJFF 260837Z 2609/2712 32007KT 9999 FEW040
      BECMG 2611/2613 16006KT
      BECMG 2703/2706 30010KT
      BECMG 2709/2712 16008KT
日本時間26日18-20時:320度から7ノットの風
20-22時:風が変化
22時-27日12時:160度から6ノットの風
12-15時:風が変化
15-18時:300度から10ノットの風
18-21時:風が変化
21時:160度から8ノットの風

那覇空港
TAF ROAH 260837Z 2609/2712 03013KT 9999 FEW045
日本時間26日18時-27日03時:030度から13ノットの風

マウイのカフルイ空港
TAF PHOG 261120Z 2612/2712 04010KT P6SM VCSH SCT025 SCT040
     FM261900 04016G25KT P6SM VCSH SCT030 BKN045
     FM270600 04011KT P6SM SCT030 SCT045
      AMD LTD TO WX VIS AND WIND TIL 261600
ハワイ時間26日02-09時:040度から10ノットの風

09-20時:040度から16ノット、突風25ノット

20時-27日02時:040度から11ノットの風

サイパン空港
TAF PGSN 261125Z 2612/2712 05011KT P6SM VCSH SCT022 BKN120
マリアナ時間26日22時-27日22時:050度から11ノットの風

コメント
この記事をはてなブックマークに追加

3/25-3/26の航空気象通報(国内、海外)

2012年03月25日 21時27分09秒 | TAF

羽田空港
TAF RJTT 250842Z 2509/2612 35012KT 9999 FEW030 SCT050
      TEMPO 2509/2510 35018G28KT
      BECMG 2606/2609 16006KT
日本時間25日18-26日15時:350度から12ノットの風
但し、25日18-19時の間:350度から18ノット、突風28ノット
26日15-18時:風が変化
18-21時:160度から6ノットの風

静岡空港
TAF RJNS 250846Z 2509/2612 27016KT 9999 FEW030
      TEMPO 2509/2512 27020G30KT
      TEMPO 2600/2609 27020G30KT
日本時間25日18時-26日21時:270度から16ノットの風
但し、25日18-21時の間:ときどき270度から20ノット、突風30ノット
但し、26日09-18時の間:ときどき270度から20ノット、突風30ノット

福岡空港
TAF RJFF 250848Z 2509/2612 29011KT 9999 FEW030 BKN040
      BECMG 2609/2612 17006KT
日本時間25日18時-26日18時:290度から11ノットの風
18-21時:風が変化
21時:170度から6ノットの風

那覇空港
TAF ROAH 250841Z 2509/2612 03018KT 9999 FEW040
日本時間25日18時-26日21時:030度から18ノットの風

マウイのカフルイ空港
TAF PHOG 251120Z 2512/2612 06012KT P6SM VCSH SCT030 BKN050
     FM252000 07018G28KT P6SM SCT040 BKN050
     FM260800 06012G22KT P6SM SCT035 BKN050
      AMD LTD TO WX VIS AND WIND TIL 251600
ハワイ時間25日02-10時:060度から12ノットの風
10-22時:070度から18ノット、突風28ノット
22時-26日02時:060度から12ノット、突風22ノット

サイパン空港
TAF PGSN 251127Z 2512/2612 07011KT P6SM VCSH SCT022
マリアナ時間25日22時-26日22時:070度から11ノットの風

コメント
この記事をはてなブックマークに追加